Time;durP1;ratioP1;P1;durP2;ratioP2;P2;SDS_P1;SDS_P2;PMS_P1;PMS_P2;Temp;Humidity;BMP_temperature;BMP_pressure;BME280_temperature;BME280_humidity;BME280_pressure;Samples;Min_cycle;Max_cycle;Signal;HPM_P1;HPM_P2
2023/05/23 00:02:14;;;;;;;30.35;26.52;;;;;;;;;;5099399;28;20069;-67
2023/05/23 00:04:39;;;;;;;36.95;30.75;;;;;;;;;;5103252;28;20528;-66
2023/05/23 00:07:05;;;;;;;33.08;28.13;;;;;;;;;;5098788;28;20020;-67
2023/05/23 00:09:30;;;;;;;45.63;29.42;;;;;;;;;;5112475;28;20034;-66
2023/05/23 00:11:55;;;;;;;34.85;28.45;;;;;;;;;;5098117;28;20031;-67
2023/05/23 00:14:20;;;;;;;36.05;30.05;;;;;;;;;;5098276;28;20024;-67
2023/05/23 00:16:48;;;;;;;36.30;31.80;;;;;;;;;;5099858;28;20439;-67
2023/05/23 00:19:13;;;;;;;49.05;30.80;;;;;;;;;;5112349;28;20054;-67
2023/05/23 00:21:39;;;;;;;35.90;31.27;;;;;;;;;;5099265;28;20056;-67
2023/05/23 00:24:04;;;;;;;41.22;33.28;;;;;;;;;;5105415;28;20027;-66
2023/05/23 00:26:30;;;;;;;45.60;35.55;;;;;;;;;;5112725;28;20031;-66
2023/05/23 00:28:55;;;;;;;38.17;33.28;;;;;;;;;;5112195;28;20031;-67
2023/05/23 00:31:21;;;;;;;48.67;36.88;;;;;;;;;;5112077;28;20046;-67
2023/05/23 00:33:46;;;;;;;39.60;35.22;;;;;;;;;;5111065;28;20039;-67
2023/05/23 00:36:12;;;;;;;43.38;36.45;;;;;;;;;;5110741;28;20102;-67
2023/05/23 00:38:38;;;;;;;44.53;38.53;;;;;;;;;;5111702;28;20039;-67
2023/05/23 00:41:04;;;;;;;51.95;39.53;;;;;;;;;;5111940;28;20034;-67
2023/05/23 00:43:30;;;;;;;50.33;39.63;;;;;;;;;;5110861;28;20098;-67
2023/05/23 00:45:55;;;;;;;42.78;37.55;;;;;;;;;;5112689;28;20023;-67
2023/05/23 00:48:21;;;;;;;49.53;38.55;;;;;;;;;;5111706;28;20058;-67
2023/05/23 00:50:46;;;;;;;49.78;37.72;;;;;;;;;;5106825;28;20024;-67
2023/05/23 00:53:12;;;;;;;45.03;37.58;;;;;;;;;;5111782;28;20497;-67
2023/05/23 00:55:38;;;;;;;41.17;34.92;;;;;;;;;;5112329;28;20035;-67
2023/05/23 00:58:03;;;;;;;45.72;37.50;;;;;;;;;;5105391;28;20462;-66
2023/05/23 01:00:29;;;;;;;46.88;38.58;;;;;;;;;;5090962;28;20024;-67
2023/05/23 01:02:54;;;;;;;43.30;34.85;;;;;;;;;;5094927;28;20137;-67
2023/05/23 01:05:21;;;;;;;38.10;33.83;;;;;;;;;;5092173;28;20028;-68
2023/05/23 01:07:47;;;;;;;42.05;33.78;;;;;;;;;;5093978;28;20039;-65
2023/05/23 01:10:13;;;;;;;39.22;31.10;;;;;;;;;;5111503;28;20026;-67
2023/05/23 01:12:56;;;;;;;40.90;32.58;;;;;;;;;;5109565;28;20022;-67
2023/05/23 01:15:25;;;;;;;38.63;30.58;;;;;;;;;;5091964;28;20547;-67
2023/05/23 01:18:00;;;;;;;34.38;30.58;;;;;;;;;;5102420;28;20034;-67
2023/05/23 01:20:51;;;;;;;37.35;30.92;;;;;;;;;;5109486;28;20031;-67
2023/05/23 01:23:23;;;;;;;37.53;29.77;;;;;;;;;;5106689;28;20044;-66
2023/05/23 01:25:49;;;;;;;36.20;29.15;;;;;;;;;;5111276;28;20546;-66
2023/05/23 01:28:16;;;;;;;32.47;28.75;;;;;;;;;;5109665;28;20091;-66
2023/05/23 01:30:43;;;;;;;37.67;28.63;;;;;;;;;;5110556;28;20023;-66
2023/05/23 01:33:10;;;;;;;32.95;27.92;;;;;;;;;;5097035;28;20619;-66
2023/05/23 01:35:36;;;;;;;31.50;26.77;;;;;;;;;;5111296;28;20015;-67
2023/05/23 01:38:01;;;;;;;42.00;27.48;;;;;;;;;;5110855;28;20702;-66
2023/05/23 01:40:26;;;;;;;34.25;27.25;;;;;;;;;;5110394;28;20304;-67
2023/05/23 01:42:52;;;;;;;32.08;27.20;;;;;;;;;;5111050;28;20028;-66
2023/05/23 01:45:18;;;;;;;29.20;24.23;;;;;;;;;;5111048;28;20375;-67
2023/05/23 01:47:45;;;;;;;28.15;24.55;;;;;;;;;;5094930;28;20058;-65
2023/05/23 01:50:10;;;;;;;27.25;23.75;;;;;;;;;;5091336;28;20027;-67
2023/05/23 01:52:36;;;;;;;28.92;24.00;;;;;;;;;;5091552;28;20024;-67
2023/05/23 01:55:08;;;;;;;24.77;22.13;;;;;;;;;;5091810;28;20442;-65
2023/05/23 01:57:34;;;;;;;27.17;22.63;;;;;;;;;;5091946;28;20031;-65
2023/05/23 01:59:59;;;;;;;24.00;21.50;;;;;;;;;;5091111;28;20048;-67
2023/05/23 02:02:25;;;;;;;26.33;21.35;;;;;;;;;;5091871;28;20067;-66
2023/05/23 02:04:50;;;;;;;29.77;21.08;;;;;;;;;;5099140;28;20118;-65
2023/05/23 02:07:15;;;;;;;24.67;20.40;;;;;;;;;;5097246;28;20032;-66
2023/05/23 02:09:40;;;;;;;28.33;21.10;;;;;;;;;;5103788;28;20055;-66
2023/05/23 02:12:06;;;;;;;23.70;19.77;;;;;;;;;;5091031;28;20111;-66
2023/05/23 02:14:32;;;;;;;21.85;19.10;;;;;;;;;;5092134;28;20031;-66
2023/05/23 02:16:57;;;;;;;26.20;17.77;;;;;;;;;;5095172;28;20106;-66
2023/05/23 02:19:22;;;;;;;25.63;18.13;;;;;;;;;;5110519;28;20032;-65
2023/05/23 02:21:47;;;;;;;20.27;17.33;;;;;;;;;;5110096;28;20030;-66
2023/05/23 02:24:13;;;;;;;21.92;18.05;;;;;;;;;;5110862;28;20032;-67
2023/05/23 02:26:38;;;;;;;19.27;16.65;;;;;;;;;;5109454;28;20039;-67
2023/05/23 02:29:03;;;;;;;21.73;17.77;;;;;;;;;;5110484;28;20106;-67
2023/05/23 02:31:29;;;;;;;20.00;16.30;;;;;;;;;;5109598;28;20265;-66
2023/05/23 02:33:55;;;;;;;19.52;16.63;;;;;;;;;;5109549;28;20032;-66
2023/05/23 02:36:20;;;;;;;21.70;16.08;;;;;;;;;;5108068;28;20031;-66
2023/05/23 02:38:45;;;;;;;19.48;15.98;;;;;;;;;;5108877;28;20114;-66
2023/05/23 02:41:11;;;;;;;20.98;17.02;;;;;;;;;;5103923;28;20027;-66
2023/05/23 02:43:36;;;;;;;22.42;16.77;;;;;;;;;;5108510;28;20379;-67
2023/05/23 02:46:02;;;;;;;26.42;17.65;;;;;;;;;;5106421;28;20099;-66
2023/05/23 02:48:27;;;;;;;22.35;17.63;;;;;;;;;;5108187;28;20039;-67
2023/05/23 02:50:52;;;;;;;20.27;17.35;;;;;;;;;;5105552;28;20085;-65
2023/05/23 02:53:17;;;;;;;29.17;19.33;;;;;;;;;;5108141;28;20015;-66
2023/05/23 02:55:43;;;;;;;26.70;18.47;;;;;;;;;;5105923;28;20028;-66
2023/05/23 02:58:08;;;;;;;20.40;17.70;;;;;;;;;;5108320;28;20289;-65
2023/05/23 03:00:33;;;;;;;26.63;18.40;;;;;;;;;;5108658;28;20378;-67
2023/05/23 03:02:59;;;;;;;23.75;16.15;;;;;;;;;;5108561;28;20467;-67
2023/05/23 03:05:24;;;;;;;18.45;16.30;;;;;;;;;;5108796;28;20475;-67
2023/05/23 03:07:51;;;;;;;25.65;17.25;;;;;;;;;;5098401;28;20424;-67
2023/05/23 03:10:17;;;;;;;19.35;16.80;;;;;;;;;;5093015;28;20521;-67
2023/05/23 03:12:42;;;;;;;23.42;16.33;;;;;;;;;;5093531;28;20107;-67
2023/05/23 03:15:08;;;;;;;22.70;17.40;;;;;;;;;;5093893;28;20081;-67
2023/05/23 03:17:33;;;;;;;23.65;16.50;;;;;;;;;;5110144;28;20440;-66
2023/05/23 03:19:58;;;;;;;29.08;17.30;;;;;;;;;;5101917;28;20028;-68
2023/05/23 03:22:24;;;;;;;20.45;16.23;;;;;;;;;;5098385;28;20073;-67
2023/05/23 03:24:49;;;;;;;24.67;17.88;;;;;;;;;;5113121;28;20023;-65
2023/05/23 03:27:14;;;;;;;24.25;18.15;;;;;;;;;;5099158;28;20046;-65
2023/05/23 03:29:40;;;;;;;22.75;17.55;;;;;;;;;;5112993;28;20027;-66
2023/05/23 03:32:05;;;;;;;24.42;18.08;;;;;;;;;;5112183;28;20023;-65
2023/05/23 03:34:31;;;;;;;20.38;16.52;;;;;;;;;;5112667;28;20019;-66
2023/05/23 03:36:57;;;;;;;22.95;17.45;;;;;;;;;;5111009;28;20035;-65
2023/05/23 03:39:23;;;;;;;22.33;17.48;;;;;;;;;;5112675;28;20019;-64
2023/05/23 03:41:48;;;;;;;25.98;18.33;;;;;;;;;;5109449;28;20364;-67
2023/05/23 03:44:13;;;;;;;24.25;17.98;;;;;;;;;;5111830;28;20049;-63
2023/05/23 03:46:39;;;;;;;23.85;17.13;;;;;;;;;;5111028;28;20016;-66
2023/05/23 03:49:04;;;;;;;22.98;17.50;;;;;;;;;;5101514;28;20107;-65
2023/05/23 03:51:30;;;;;;;28.58;18.02;;;;;;;;;;5109283;28;20474;-66
2023/05/23 03:53:56;;;;;;;23.60;17.52;;;;;;;;;;5112919;28;20016;-67
2023/05/23 03:56:21;;;;;;;20.83;15.48;;;;;;;;;;5112109;28;20497;-67
2023/05/23 03:58:47;;;;;;;25.30;17.08;;;;;;;;;;5111274;28;20028;-67
2023/05/23 04:01:12;;;;;;;33.00;17.42;;;;;;;;;;5106946;28;20016;-67
2023/05/23 04:03:37;;;;;;;23.08;17.60;;;;;;;;;;5111580;28;20020;-67
2023/05/23 04:06:03;;;;;;;22.58;16.35;;;;;;;;;;5108319;28;20484;-67
2023/05/23 04:08:32;;;;;;;24.58;16.35;;;;;;;;;;5103190;28;20028;-67
2023/05/23 04:10:57;;;;;;;20.67;14.90;;;;;;;;;;5112721;28;20035;-66
2023/05/23 04:13:23;;;;;;;24.55;15.63;;;;;;;;;;5112462;28;20023;-67
2023/05/23 04:15:50;;;;;;;19.52;15.05;;;;;;;;;;5111895;28;20497;-67
2023/05/23 04:18:16;;;;;;;20.58;14.48;;;;;;;;;;5109499;28;20027;-67
2023/05/23 04:20:41;;;;;;;19.27;14.90;;;;;;;;;;5110030;28;20022;-66
2023/05/23 04:23:06;;;;;;;20.25;15.50;;;;;;;;;;5094149;28;20476;-67
2023/05/23 04:25:33;;;;;;;21.10;15.93;;;;;;;;;;5096467;28;20063;-67
2023/05/23 04:27:58;;;;;;;22.33;16.60;;;;;;;;;;5098098;28;20079;-65
2023/05/23 04:30:23;;;;;;;26.98;16.25;;;;;;;;;;5105659;28;20020;-67
2023/05/23 04:32:49;;;;;;;22.13;15.65;;;;;;;;;;5100316;28;20016;-67
2023/05/23 04:35:14;;;;;;;29.67;15.98;;;;;;;;;;5108267;28;20051;-65
2023/05/23 04:37:41;;;;;;;20.60;14.35;;;;;;;;;;5110768;28;20377;-67
2023/05/23 04:40:06;;;;;;;24.90;16.67;;;;;;;;;;5111232;28;20024;-67
2023/05/23 04:42:32;;;;;;;24.92;15.32;;;;;;;;;;5110851;28;20031;-66
2023/05/23 04:44:57;;;;;;;22.35;13.60;;;;;;;;;;5109376;28;20060;-67
2023/05/23 04:47:27;;;;;;;22.00;14.27;;;;;;;;;;5111830;28;20027;-67
2023/05/23 04:49:53;;;;;;;20.27;14.20;;;;;;;;;;5110914;28;20041;-67
2023/05/23 04:52:19;;;;;;;25.80;14.23;;;;;;;;;;5110950;28;20488;-67
2023/05/23 04:54:45;;;;;;;17.45;12.85;;;;;;;;;;5110184;28;20028;-66
2023/05/23 04:57:11;;;;;;;14.48;12.20;;;;;;;;;;5109291;28;20042;-68
2023/05/23 04:59:37;;;;;;;18.63;12.02;;;;;;;;;;5098616;28;20029;-67
2023/05/23 05:02:02;;;;;;;16.48;11.30;;;;;;;;;;5099730;28;20030;-64
2023/05/23 05:04:27;;;;;;;15.27;11.00;;;;;;;;;;5103418;28;20028;-67
2023/05/23 05:06:52;;;;;;;18.35;10.65;;;;;;;;;;5096195;28;20078;-67
2023/05/23 05:09:18;;;;;;;15.60;11.02;;;;;;;;;;5105268;28;20015;-67
2023/05/23 05:11:43;;;;;;;17.67;10.52;;;;;;;;;;5107669;28;20030;-67
2023/05/23 05:14:08;;;;;;;13.95;10.18;;;;;;;;;;5110704;28;20020;-67
2023/05/23 05:16:34;;;;;;;11.90;9.52;;;;;;;;;;5110877;28;20055;-66
2023/05/23 05:19:00;;;;;;;13.52;9.55;;;;;;;;;;5111540;28;20039;-67
2023/05/23 05:21:25;;;;;;;19.13;9.88;;;;;;;;;;5098414;28;20040;-67
2023/05/23 05:23:51;;;;;;;16.05;9.27;;;;;;;;;;5094086;28;20533;-67
2023/05/23 05:26:16;;;;;;;13.48;9.38;;;;;;;;;;5092723;28;20664;-66
2023/05/23 05:28:42;;;;;;;13.88;8.35;;;;;;;;;;5092813;28;20041;-67
2023/05/23 05:31:07;;;;;;;13.90;8.73;;;;;;;;;;5092947;28;20028;-66
2023/05/23 05:33:34;;;;;;;13.82;8.50;;;;;;;;;;5098719;28;20028;-66
2023/05/23 05:36:01;;;;;;;19.23;10.55;;;;;;;;;;5099296;28;20036;-67
2023/05/23 05:38:27;;;;;;;15.00;9.48;;;;;;;;;;5092766;28;20062;-66
2023/05/23 05:40:52;;;;;;;13.05;9.80;;;;;;;;;;5093793;28;20061;-66
2023/05/23 05:43:17;;;;;;;13.88;9.70;;;;;;;;;;5093296;28;20020;-66
2023/05/23 05:45:43;;;;;;;14.50;9.73;;;;;;;;;;5093033;28;20063;-66
2023/05/23 05:48:08;;;;;;;18.65;10.38;;;;;;;;;;5093223;28;20027;-66
2023/05/23 05:50:33;;;;;;;12.27;10.45;;;;;;;;;;5093477;28;20479;-66
2023/05/23 05:52:58;;;;;;;28.52;13.30;;;;;;;;;;5105441;28;20031;-67
2023/05/23 05:55:24;;;;;;;17.42;11.30;;;;;;;;;;5106317;28;20023;-66
2023/05/23 05:57:49;;;;;;;16.08;11.50;;;;;;;;;;5092837;28;20694;-66
2023/05/23 06:00:14;;;;;;;14.07;11.57;;;;;;;;;;5094316;28;20466;-66
2023/05/23 06:02:44;;;;;;;20.65;12.15;;;;;;;;;;5104866;28;20523;-66
2023/05/23 06:05:11;;;;;;;16.42;10.77;;;;;;;;;;5092415;28;20024;-66
2023/05/23 06:07:39;;;;;;;16.25;11.25;;;;;;;;;;5094421;28;20024;-66
2023/05/23 06:10:05;;;;;;;17.63;11.48;;;;;;;;;;5095149;28;20024;-66
2023/05/23 06:12:31;;;;;;;18.15;11.77;;;;;;;;;;5098705;28;20069;-66
2023/05/23 06:14:56;;;;;;;18.10;11.85;;;;;;;;;;5093714;28;20106;-66
2023/05/23 06:17:21;;;;;;;15.70;11.40;;;;;;;;;;5097837;28;20031;-66
2023/05/23 06:19:47;;;;;;;14.70;11.05;;;;;;;;;;5092629;28;20111;-66
2023/05/23 06:22:12;;;;;;;17.20;11.48;;;;;;;;;;5096067;28;20541;-66
2023/05/23 06:24:37;;;;;;;18.90;11.38;;;;;;;;;;5093308;28;20039;-66
2023/05/23 06:27:02;;;;;;;15.75;10.32;;;;;;;;;;5096890;28;20470;-66
2023/05/23 06:29:29;;;;;;;20.08;10.48;;;;;;;;;;5093632;28;20122;-66
2023/05/23 06:31:55;;;;;;;13.52;10.75;;;;;;;;;;5096806;28;20023;-65
2023/05/23 06:34:20;;;;;;;17.48;10.43;;;;;;;;;;5093250;28;20497;-66
2023/05/23 06:36:47;;;;;;;18.57;11.70;;;;;;;;;;5097534;28;20058;-66
2023/05/23 06:39:12;;;;;;;14.73;9.98;;;;;;;;;;5094075;28;20294;-66
2023/05/23 06:41:38;;;;;;;12.88;10.88;;;;;;;;;;5098385;28;20031;-66
2023/05/23 06:44:03;;;;;;;15.27;10.77;;;;;;;;;;5110209;28;20051;-66
2023/05/23 06:46:28;;;;;;;14.57;10.40;;;;;;;;;;5102085;28;20023;-66
2023/05/23 06:48:54;;;;;;;17.20;10.75;;;;;;;;;;5091163;28;20028;-66
2023/05/23 06:51:19;;;;;;;15.35;10.82;;;;;;;;;;5096294;28;20128;-66
2023/05/23 06:53:44;;;;;;;17.40;10.13;;;;;;;;;;5093598;28;20031;-66
2023/05/23 06:56:10;;;;;;;19.60;11.13;;;;;;;;;;5091345;28;20028;-63
2023/05/23 06:58:35;;;;;;;15.48;10.98;;;;;;;;;;5091627;28;20098;-65
2023/05/23 07:01:00;;;;;;;17.77;12.70;;;;;;;;;;5090013;28;20032;-65
2023/05/23 07:03:26;;;;;;;20.42;11.63;;;;;;;;;;5090544;28;20284;-65
2023/05/23 07:05:51;;;;;;;15.40;11.05;;;;;;;;;;5071855;28;20456;-66
2023/05/23 07:08:17;;;;;;;23.83;13.82;;;;;;;;;;5099353;28;20019;-65
2023/05/23 07:10:42;;;;;;;25.95;16.00;;;;;;;;;;5106804;28;20132;-64
2023/05/23 07:13:07;;;;;;;22.80;15.75;;;;;;;;;;5097621;28;20019;-66
2023/05/23 07:15:32;;;;;;;21.95;15.45;;;;;;;;;;5101627;28;20103;-64
2023/05/23 07:17:58;;;;;;;22.88;14.82;;;;;;;;;;5109211;28;20040;-67
2023/05/23 07:20:23;;;;;;;28.60;14.73;;;;;;;;;;5095704;28;20053;-64
2023/05/23 07:22:50;;;;;;;26.40;15.45;;;;;;;;;;5099116;28;20031;-66
2023/05/23 07:25:15;;;;;;;26.45;13.77;;;;;;;;;;5091271;28;20101;-66
2023/05/23 07:27:41;;;;;;;21.40;13.45;;;;;;;;;;5090574;28;20092;-65
2023/05/23 07:30:08;;;;;;;25.90;15.23;;;;;;;;;;5090739;28;20493;-61
2023/05/23 07:32:33;;;;;;;31.10;14.65;;;;;;;;;;5090757;28;20028;-64
2023/05/23 07:34:58;;;;;;;27.35;14.98;;;;;;;;;;5095878;28;20042;-66
2023/05/23 07:37:26;;;;;;;38.80;15.23;;;;;;;;;;5097782;28;20060;-65
2023/05/23 07:39:51;;;;;;;23.33;14.25;;;;;;;;;;5073115;28;20018;-67
2023/05/23 07:42:16;;;;;;;23.65;13.13;;;;;;;;;;5089931;28;20107;-67
2023/05/23 07:44:42;;;;;;;28.38;13.75;;;;;;;;;;5090768;28;20527;-64
2023/05/23 07:47:07;;;;;;;27.35;13.13;;;;;;;;;;5090053;28;20024;-67
2023/05/23 07:49:33;;;;;;;25.92;14.90;;;;;;;;;;5107492;28;20067;-65
2023/05/23 07:51:58;;;;;;;27.00;14.98;;;;;;;;;;5112341;28;20069;-64
2023/05/23 07:54:23;;;;;;;30.80;16.80;;;;;;;;;;5112279;28;20028;-65
2023/05/23 07:56:48;;;;;;;30.67;14.27;;;;;;;;;;5112918;28;20024;-65
2023/05/23 07:59:14;;;;;;;25.00;13.65;;;;;;;;;;5111891;28;20474;-64
2023/05/23 08:01:39;;;;;;;29.92;13.07;;;;;;;;;;5112510;28;20038;-67
2023/05/23 08:04:05;;;;;;;17.05;11.45;;;;;;;;;;5111304;28;20103;-65
2023/05/23 08:06:30;;;;;;;21.58;11.85;;;;;;;;;;5103674;28;20028;-66
2023/05/23 08:08:56;;;;;;;29.05;12.82;;;;;;;;;;5106593;28;20026;-65
2023/05/23 08:11:21;;;;;;;19.65;10.73;;;;;;;;;;5092015;28;20188;-65
2023/05/23 08:13:46;;;;;;;24.42;11.15;;;;;;;;;;5106609;28;20023;-64
2023/05/23 08:16:11;;;;;;;18.35;9.55;;;;;;;;;;5092854;28;20099;-64
2023/05/23 08:18:37;;;;;;;22.08;10.75;;;;;;;;;;5109079;28;20036;-64
2023/05/23 08:21:03;;;;;;;20.85;10.27;;;;;;;;;;5099517;28;21220;-64
2023/05/23 08:23:28;;;;;;;20.58;9.35;;;;;;;;;;5108568;28;20020;-64
2023/05/23 08:25:53;;;;;;;14.93;9.48;;;;;;;;;;5110766;28;20106;-65
2023/05/23 08:28:18;;;;;;;23.73;10.52;;;;;;;;;;5101474;28;20126;-65
2023/05/23 08:30:44;;;;;;;19.23;8.77;;;;;;;;;;5104811;28;20034;-64
2023/05/23 08:33:09;;;;;;;17.42;8.57;;;;;;;;;;5102430;28;20594;-65
2023/05/23 08:35:35;;;;;;;17.83;8.95;;;;;;;;;;5105197;28;20031;-65
2023/05/23 08:38:04;;;;;;;16.88;8.77;;;;;;;;;;5101928;28;20105;-64
2023/05/23 08:40:30;;;;;;;13.13;7.82;;;;;;;;;;5105144;28;20023;-65
2023/05/23 08:42:55;;;;;;;13.70;7.55;;;;;;;;;;5103953;28;20095;-64
2023/05/23 08:45:20;;;;;;;15.38;7.25;;;;;;;;;;5105610;28;20024;-65
2023/05/23 08:47:46;;;;;;;15.60;8.03;;;;;;;;;;5101751;28;20050;-67
2023/05/23 08:50:13;;;;;;;11.93;7.43;;;;;;;;;;5104863;28;20269;-63
2023/05/23 08:52:52;;;;;;;11.20;7.20;;;;;;;;;;5101938;28;20032;-64
2023/05/23 08:55:18;;;;;;;15.30;6.93;;;;;;;;;;5102494;28;20055;-63
2023/05/23 08:57:44;;;;;;;16.02;6.97;;;;;;;;;;5108648;28;20050;-66
2023/05/23 09:00:13;;;;;;;7.38;5.72;;;;;;;;;;5100005;28;20457;-64
2023/05/23 09:02:39;;;;;;;15.18;6.85;;;;;;;;;;5102856;28;20023;-66
2023/05/23 09:05:04;;;;;;;10.02;6.38;;;;;;;;;;5100342;28;20026;-65
2023/05/23 09:07:30;;;;;;;12.07;6.32;;;;;;;;;;5095589;28;20040;-65
2023/05/23 09:09:55;;;;;;;12.85;6.40;;;;;;;;;;5111129;28;20503;-66
2023/05/23 09:12:23;;;;;;;10.73;6.82;;;;;;;;;;5110803;28;20027;-66
2023/05/23 09:14:49;;;;;;;11.20;6.13;;;;;;;;;;5110670;28;20020;-64
2023/05/23 09:17:17;;;;;;;11.23;6.82;;;;;;;;;;5105879;28;21296;-67
2023/05/23 09:19:45;;;;;;;12.27;6.50;;;;;;;;;;5092741;28;20785;-65
2023/05/23 09:22:11;;;;;;;11.43;5.85;;;;;;;;;;5097314;28;20040;-66
2023/05/23 09:24:36;;;;;;;12.40;5.60;;;;;;;;;;5099965;28;20378;-64
2023/05/23 09:27:03;;;;;;;14.75;7.03;;;;;;;;;;5098325;28;20051;-66
2023/05/23 09:29:29;;;;;;;10.82;5.90;;;;;;;;;;5100849;28;20020;-66
2023/05/23 09:31:59;;;;;;;11.82;5.47;;;;;;;;;;5080318;28;20058;-64
2023/05/23 09:34:25;;;;;;;13.63;6.30;;;;;;;;;;5110746;28;20023;-65
2023/05/23 09:36:54;;;;;;;13.15;6.15;;;;;;;;;;5077552;28;20039;-66
2023/05/23 09:39:19;;;;;;;9.55;6.32;;;;;;;;;;5092153;28;20031;-65
2023/05/23 09:41:47;;;;;;;18.80;6.53;;;;;;;;;;5105724;28;20358;-68
2023/05/23 09:44:12;;;;;;;9.77;5.68;;;;;;;;;;5091854;28;20016;-66
2023/05/23 09:46:37;;;;;;;10.02;5.97;;;;;;;;;;5096050;28;20381;-66
2023/05/23 09:49:13;;;;;;;11.73;6.53;;;;;;;;;;5097538;28;20039;-66
2023/05/23 09:51:38;;;;;;;13.68;6.80;;;;;;;;;;5096508;28;20507;-66
2023/05/23 09:54:04;;;;;;;11.50;5.63;;;;;;;;;;5095543;28;20107;-69
2023/05/23 09:56:29;;;;;;;16.23;6.60;;;;;;;;;;5107891;28;20289;-65
2023/05/23 09:58:55;;;;;;;12.25;5.60;;;;;;;;;;5090874;28;20103;-68
2023/05/23 10:01:22;;;;;;;17.88;6.70;;;;;;;;;;5102817;28;20076;-68
2023/05/23 10:03:53;;;;;;;12.82;5.60;;;;;;;;;;5110907;28;20032;-65
2023/05/23 10:06:18;;;;;;;10.43;5.13;;;;;;;;;;5099621;28;20495;-66
2023/05/23 10:08:45;;;;;;;9.77;5.53;;;;;;;;;;5097109;28;20024;-66
2023/05/23 10:11:15;;;;;;;10.85;5.55;;;;;;;;;;5105879;28;20469;-66
2023/05/23 10:13:42;;;;;;;12.82;5.30;;;;;;;;;;5100342;28;20061;-67
2023/05/23 10:16:11;;;;;;;11.73;5.50;;;;;;;;;;5105985;28;20039;-65
2023/05/23 10:18:43;;;;;;;11.75;5.63;;;;;;;;;;5105810;28;20028;-68
2023/05/23 10:21:10;;;;;;;9.15;5.28;;;;;;;;;;5091036;28;20028;-67
2023/05/23 10:23:36;;;;;;;9.07;5.45;;;;;;;;;;5090482;28;20378;-67
2023/05/23 10:26:03;;;;;;;8.48;4.50;;;;;;;;;;5091129;28;20032;-66
2023/05/23 10:28:29;;;;;;;8.52;4.40;;;;;;;;;;5108947;28;20034;-67
2023/05/23 10:30:54;;;;;;;12.15;5.63;;;;;;;;;;5111683;28;20028;-66
2023/05/23 10:33:21;;;;;;;12.00;5.13;;;;;;;;;;5110391;28;20513;-67
2023/05/23 10:35:55;;;;;;;12.68;4.88;;;;;;;;;;5110347;28;20011;-67
2023/05/23 10:38:23;;;;;;;7.85;4.80;;;;;;;;;;5109194;28;20181;-66
2023/05/23 10:40:52;;;;;;;9.18;4.80;;;;;;;;;;5096742;28;20040;-67
2023/05/23 10:43:23;;;;;;;7.10;3.92;;;;;;;;;;5090032;28;20486;-66
2023/05/23 10:45:50;;;;;;;7.78;4.38;;;;;;;;;;5090764;28;20027;-67
2023/05/23 10:48:19;;;;;;;8.77;4.32;;;;;;;;;;5090403;28;20016;-67
2023/05/23 10:50:45;;;;;;;13.40;4.50;;;;;;;;;;5089893;28;20020;-66
2023/05/23 10:53:15;;;;;;;6.97;3.88;;;;;;;;;;5090430;28;20111;-66
2023/05/23 10:55:40;;;;;;;9.48;4.43;;;;;;;;;;5090680;28;20468;-65
2023/05/23 10:58:14;;;;;;;12.77;4.38;;;;;;;;;;5090115;28;20032;-65
2023/05/23 11:00:40;;;;;;;;;;;;;;;;;;5089837;28;20045;-65
2023/05/23 11:03:07;;;;;;;12.82;3.90;;;;;;;;;;5089217;28;19915;-66
2023/05/23 11:05:34;;;;;;;8.40;4.13;;;;;;;;;;5105700;28;20029;-67
2023/05/23 11:08:09;;;;;;;8.10;4.78;;;;;;;;;;5089828;28;20048;-67
2023/05/23 11:10:55;;;;;;;8.48;4.85;;;;;;;;;;5089303;28;20559;-66
2023/05/23 11:13:21;;;;;;;10.65;4.78;;;;;;;;;;5089118;28;20043;-65
2023/05/23 11:15:47;;;;;;;11.55;5.25;;;;;;;;;;5089298;28;20031;-65
2023/05/23 11:18:19;;;;;;;9.18;4.97;;;;;;;;;;5103042;28;20035;-65
2023/05/23 11:20:46;;;;;;;12.57;5.65;;;;;;;;;;5096254;28;20103;-68
2023/05/23 11:23:11;;;;;;;8.52;4.82;;;;;;;;;;5094702;28;20054;-65
2023/05/23 11:25:50;;;;;;;12.75;6.03;;;;;;;;;;5090031;28;20099;-65
2023/05/23 11:28:16;;;;;;;10.63;4.75;;;;;;;;;;5093282;28;20446;-66
2023/05/23 11:30:41;;;;;;;7.03;4.70;;;;;;;;;;5093336;28;20114;-66
2023/05/23 11:33:12;;;;;;;10.77;4.28;;;;;;;;;;5075077;28;20545;-66
2023/05/23 11:35:41;;;;;;;10.95;4.43;;;;;;;;;;5093593;28;20531;-65
2023/05/23 11:38:06;;;;;;;7.80;4.57;;;;;;;;;;5093120;28;20428;-67
2023/05/23 11:40:38;;;;;;;14.18;4.85;;;;;;;;;;5074735;28;20017;-67
2023/05/23 11:43:05;;;;;;;9.45;4.22;;;;;;;;;;5106927;28;20501;-65
2023/05/23 11:45:31;;;;;;;9.50;4.57;;;;;;;;;;5102723;28;20110;-67
2023/05/23 11:47:56;;;;;;;15.52;3.95;;;;;;;;;;5099021;28;20103;-64
2023/05/23 11:50:23;;;;;;;14.18;4.82;;;;;;;;;;5095554;28;20024;-68
2023/05/23 11:52:51;;;;;;;10.35;4.68;;;;;;;;;;5101109;28;20035;-66
2023/05/23 11:55:20;;;;;;;10.93;4.03;;;;;;;;;;5107000;28;20028;-66
2023/05/23 11:57:45;;;;;;;15.65;4.32;;;;;;;;;;5109694;28;20023;-66
2023/05/23 12:00:11;;;;;;;20.40;4.47;;;;;;;;;;5112173;28;20103;-67
2023/05/23 12:02:39;;;;;;;12.23;4.63;;;;;;;;;;5094511;28;20359;-66
2023/05/23 12:05:14;;;;;;;8.57;4.68;;;;;;;;;;5096850;28;20534;-65
2023/05/23 12:07:47;;;;;;;13.43;5.47;;;;;;;;;;5098539;28;20587;-66
2023/05/23 12:10:16;;;;;;;9.88;4.30;;;;;;;;;;5102302;28;20024;-63
2023/05/23 12:12:44;;;;;;;12.20;5.30;;;;;;;;;;5097496;28;20028;-65
2023/05/23 12:15:10;;;;;;;18.80;5.05;;;;;;;;;;5093948;28;20532;-64
2023/05/23 12:17:36;;;;;;;14.05;4.35;;;;;;;;;;5102958;28;20086;-66
2023/05/23 12:20:02;;;;;;;7.97;4.32;;;;;;;;;;5105607;28;20111;-66
2023/05/23 12:22:28;;;;;;;11.98;4.70;;;;;;;;;;5105624;28;20474;-64
2023/05/23 12:24:54;;;;;;;11.55;5.07;;;;;;;;;;5096539;28;20034;-67
2023/05/23 12:27:25;;;;;;;11.10;4.80;;;;;;;;;;5093191;28;20177;-66
2023/05/23 12:29:51;;;;;;;20.35;5.07;;;;;;;;;;5094028;28;20421;-65
2023/05/23 12:32:16;;;;;;;8.63;5.03;;;;;;;;;;5092736;28;20020;-67
2023/05/23 12:34:42;;;;;;;10.43;4.80;;;;;;;;;;5094350;28;20011;-66
2023/05/23 12:37:07;;;;;;;11.13;3.90;;;;;;;;;;5092691;28;20054;-65
2023/05/23 12:39:35;;;;;;;9.75;5.00;;;;;;;;;;5095074;28;20036;-65
2023/05/23 12:42:07;;;;;;;17.95;4.78;;;;;;;;;;5103400;28;20475;-66
2023/05/23 12:44:33;;;;;;;13.48;4.95;;;;;;;;;;5096474;28;20072;-65
2023/05/23 12:46:58;;;;;;;12.27;5.68;;;;;;;;;;5100971;28;20032;-66
2023/05/23 12:49:23;;;;;;;11.30;4.93;;;;;;;;;;5094449;28;20131;-68
2023/05/23 12:51:49;;;;;;;8.10;4.60;;;;;;;;;;5102253;28;20059;-66
2023/05/23 12:54:14;;;;;;;11.95;6.22;;;;;;;;;;5092852;28;20028;-66
2023/05/23 12:56:39;;;;;;;8.55;4.93;;;;;;;;;;5102886;28;20028;-68
2023/05/23 12:59:05;;;;;;;14.93;5.32;;;;;;;;;;5096334;28;20036;-66
2023/05/23 13:01:33;;;;;;;11.85;4.40;;;;;;;;;;5092398;28;20091;-65
2023/05/23 13:03:58;;;;;;;9.88;5.35;;;;;;;;;;5096090;28;20052;-68
2023/05/23 13:06:25;;;;;;;20.20;5.20;;;;;;;;;;5095547;28;20502;-67
2023/05/23 13:08:53;;;;;;;16.15;4.47;;;;;;;;;;5096314;28;20640;-66
2023/05/23 13:11:19;;;;;;;11.20;5.00;;;;;;;;;;5099310;28;20022;-65
2023/05/23 13:13:45;;;;;;;11.32;5.38;;;;;;;;;;5094693;28;20032;-65
2023/05/23 13:16:10;;;;;;;18.80;5.90;;;;;;;;;;5096505;28;20565;-64
2023/05/23 13:18:36;;;;;;;10.95;4.45;;;;;;;;;;5104510;28;20031;-66
2023/05/23 13:21:01;;;;;;;10.18;5.68;;;;;;;;;;5087077;28;20043;-66
2023/05/23 13:23:27;;;;;;;10.43;5.78;;;;;;;;;;5100357;28;20096;-66
2023/05/23 13:25:52;;;;;;;15.75;5.32;;;;;;;;;;5109635;28;20032;-65
2023/05/23 13:28:17;;;;;;;12.77;5.07;;;;;;;;;;5109166;28;20308;-66
2023/05/23 13:30:43;;;;;;;9.20;4.78;;;;;;;;;;5110215;28;20015;-67
2023/05/23 13:33:08;;;;;;;12.77;4.85;;;;;;;;;;5109462;28;20024;-65
2023/05/23 13:35:33;;;;;;;8.70;4.40;;;;;;;;;;5109973;28;20106;-65
2023/05/23 13:37:58;;;;;;;13.65;5.15;;;;;;;;;;5094588;28;20305;-65
2023/05/23 13:40:24;;;;;;;7.68;4.32;;;;;;;;;;5101313;28;20056;-66
2023/05/23 13:42:50;;;;;;;12.52;4.68;;;;;;;;;;5100101;28;20016;-67
2023/05/23 13:45:16;;;;;;;13.02;5.00;;;;;;;;;;5097318;28;20024;-67
2023/05/23 13:47:41;;;;;;;9.20;4.25;;;;;;;;;;5095129;28;20394;-68
2023/05/23 13:50:07;;;;;;;14.00;5.25;;;;;;;;;;5096326;28;20028;-66
2023/05/23 13:52:33;;;;;;;13.90;5.30;;;;;;;;;;5095195;28;20032;-64
2023/05/23 13:55:00;;;;;;;16.95;5.72;;;;;;;;;;5097465;28;20145;-68
2023/05/23 13:57:25;;;;;;;10.00;5.40;;;;;;;;;;5094922;28;20028;-67
2023/05/23 13:59:51;;;;;;;12.75;4.82;;;;;;;;;;5096441;28;20023;-68
2023/05/23 14:02:16;;;;;;;8.77;4.22;;;;;;;;;;5094527;28;20789;-63
2023/05/23 14:04:42;;;;;;;10.38;4.90;;;;;;;;;;5096333;28;20496;-66
2023/05/23 14:07:07;;;;;;;8.52;4.82;;;;;;;;;;5092078;28;20510;-66
2023/05/23 14:09:32;;;;;;;8.27;4.38;;;;;;;;;;5105045;28;20028;-64
2023/05/23 14:11:57;;;;;;;11.07;4.17;;;;;;;;;;5092654;28;20055;-66
2023/05/23 14:14:23;;;;;;;12.55;5.20;;;;;;;;;;5106159;28;20335;-67
2023/05/23 14:16:51;;;;;;;9.02;4.32;;;;;;;;;;5095159;28;20051;-65
2023/05/23 14:19:17;;;;;;;7.45;4.55;;;;;;;;;;5106980;28;20110;-67